sensor_id;sensor_type;location;lat;lon;timestamp;P1;durP1;ratioP1;P2;durP2;ratioP2
51866;SDS011;52862;52.504;13.480;2023-12-20T00:02:11;12.20;;;8.17;;
51866;SDS011;52862;52.504;13.480;2023-12-20T00:04:38;11.47;;;7.77;;
51866;SDS011;52862;52.504;13.480;2023-12-20T00:07:06;16.10;;;8.73;;
51866;SDS011;52862;52.504;13.480;2023-12-20T00:09:33;12.77;;;7.70;;
51866;SDS011;52862;52.504;13.480;2023-12-20T00:12:00;12.23;;;8.20;;
51866;SDS011;52862;52.504;13.480;2023-12-20T00:14:27;12.43;;;8.50;;
51866;SDS011;52862;52.504;13.480;2023-12-20T00:16:54;11.90;;;7.37;;
51866;SDS011;52862;52.504;13.480;2023-12-20T00:19:21;13.37;;;8.30;;
51866;SDS011;52862;52.504;13.480;2023-12-20T00:21:48;13.17;;;6.87;;
51866;SDS011;52862;52.504;13.480;2023-12-20T00:24:15;11.47;;;7.70;;
51866;SDS011;52862;52.504;13.480;2023-12-20T00:26:42;10.57;;;6.57;;
51866;SDS011;52862;52.504;13.480;2023-12-20T00:29:09;11.83;;;7.83;;
51866;SDS011;52862;52.504;13.480;2023-12-20T00:31:36;10.33;;;7.37;;
51866;SDS011;52862;52.504;13.480;2023-12-20T00:34:03;11.27;;;8.13;;
51866;SDS011;52862;52.504;13.480;2023-12-20T00:36:30;9.93;;;6.93;;
51866;SDS011;52862;52.504;13.480;2023-12-20T00:38:57;10.50;;;6.77;;
51866;SDS011;52862;52.504;13.480;2023-12-20T00:41:24;10.13;;;7.30;;
51866;SDS011;52862;52.504;13.480;2023-12-20T00:43:52;10.63;;;7.43;;
51866;SDS011;52862;52.504;13.480;2023-12-20T00:46:18;12.33;;;7.87;;
51866;SDS011;52862;52.504;13.480;2023-12-20T00:48:45;10.67;;;7.53;;
51866;SDS011;52862;52.504;13.480;2023-12-20T00:51:12;12.20;;;7.70;;
51866;SDS011;52862;52.504;13.480;2023-12-20T00:53:39;11.17;;;7.70;;
51866;SDS011;52862;52.504;13.480;2023-12-20T00:56:06;11.97;;;7.70;;
51866;SDS011;52862;52.504;13.480;2023-12-20T00:58:33;9.70;;;6.30;;
51866;SDS011;52862;52.504;13.480;2023-12-20T01:01:01;12.00;;;6.73;;
51866;SDS011;52862;52.504;13.480;2023-12-20T01:03:29;9.33;;;6.93;;
51866;SDS011;52862;52.504;13.480;2023-12-20T01:05:56;11.47;;;7.27;;
51866;SDS011;52862;52.504;13.480;2023-12-20T01:08:23;16.07;;;8.17;;
51866;SDS011;52862;52.504;13.480;2023-12-20T01:10:51;13.80;;;7.87;;
51866;SDS011;52862;52.504;13.480;2023-12-20T01:13:18;11.83;;;7.43;;
51866;SDS011;52862;52.504;13.480;2023-12-20T01:15:45;13.67;;;7.53;;
51866;SDS011;52862;52.504;13.480;2023-12-20T01:18:13;18.43;;;6.73;;
51866;SDS011;52862;52.504;13.480;2023-12-20T01:20:40;12.13;;;7.30;;
51866;SDS011;52862;52.504;13.480;2023-12-20T01:23:08;12.77;;;7.53;;
51866;SDS011;52862;52.504;13.480;2023-12-20T01:25:35;11.40;;;6.63;;
51866;SDS011;52862;52.504;13.480;2023-12-20T01:28:02;14.00;;;7.83;;
51866;SDS011;52862;52.504;13.480;2023-12-20T01:30:30;14.40;;;9.13;;
51866;SDS011;52862;52.504;13.480;2023-12-20T01:32:56;9.17;;;5.57;;
51866;SDS011;52862;52.504;13.480;2023-12-20T01:35:24;11.77;;;7.53;;
51866;SDS011;52862;52.504;13.480;2023-12-20T01:37:51;10.53;;;7.67;;
51866;SDS011;52862;52.504;13.480;2023-12-20T01:40:22;11.57;;;7.27;;
51866;SDS011;52862;52.504;13.480;2023-12-20T01:42:57;11.67;;;7.70;;
51866;SDS011;52862;52.504;13.480;2023-12-20T01:45:25;11.80;;;7.90;;
51866;SDS011;52862;52.504;13.480;2023-12-20T01:47:52;11.83;;;7.23;;
51866;SDS011;52862;52.504;13.480;2023-12-20T01:50:20;11.57;;;7.37;;
51866;SDS011;52862;52.504;13.480;2023-12-20T01:52:48;10.03;;;7.27;;
51866;SDS011;52862;52.504;13.480;2023-12-20T01:55:17;11.10;;;7.17;;
51866;SDS011;52862;52.504;13.480;2023-12-20T01:57:45;10.20;;;6.63;;
51866;SDS011;52862;52.504;13.480;2023-12-20T02:00:14;11.57;;;7.17;;
51866;SDS011;52862;52.504;13.480;2023-12-20T02:02:41;13.27;;;7.53;;
51866;SDS011;52862;52.504;13.480;2023-12-20T02:05:10;11.13;;;7.00;;
51866;SDS011;52862;52.504;13.480;2023-12-20T02:07:38;10.43;;;6.57;;
51866;SDS011;52862;52.504;13.480;2023-12-20T02:10:06;11.03;;;6.37;;
51866;SDS011;52862;52.504;13.480;2023-12-20T02:12:33;10.37;;;6.47;;
51866;SDS011;52862;52.504;13.480;2023-12-20T02:15:00;9.40;;;6.20;;
51866;SDS011;52862;52.504;13.480;2023-12-20T02:17:28;8.97;;;5.73;;
51866;SDS011;52862;52.504;13.480;2023-12-20T02:19:55;11.63;;;4.23;;
51866;SDS011;52862;52.504;13.480;2023-12-20T02:22:24;7.13;;;4.43;;
51866;SDS011;52862;52.504;13.480;2023-12-20T02:24:51;3.47;;;1.97;;
51866;SDS011;52862;52.504;13.480;2023-12-20T02:27:18;8.90;;;2.57;;
51866;SDS011;52862;52.504;13.480;2023-12-20T02:29:46;5.33;;;2.27;;
51866;SDS011;52862;52.504;13.480;2023-12-20T02:32:14;11.27;;;2.10;;
51866;SDS011;52862;52.504;13.480;2023-12-20T02:34:41;3.90;;;2.30;;
51866;SDS011;52862;52.504;13.480;2023-12-20T02:37:08;7.90;;;2.77;;
51866;SDS011;52862;52.504;13.480;2023-12-20T02:39:36;3.40;;;2.50;;
51866;SDS011;52862;52.504;13.480;2023-12-20T02:42:03;5.67;;;3.33;;
51866;SDS011;52862;52.504;13.480;2023-12-20T02:44:30;6.27;;;4.07;;
51866;SDS011;52862;52.504;13.480;2023-12-20T02:46:57;6.77;;;4.00;;
51866;SDS011;52862;52.504;13.480;2023-12-20T02:49:24;6.60;;;4.10;;
51866;SDS011;52862;52.504;13.480;2023-12-20T02:51:51;5.87;;;3.93;;
51866;SDS011;52862;52.504;13.480;2023-12-20T02:54:18;8.60;;;4.43;;
51866;SDS011;52862;52.504;13.480;2023-12-20T02:56:45;8.63;;;4.33;;
51866;SDS011;52862;52.504;13.480;2023-12-20T02:59:12;7.20;;;5.17;;
51866;SDS011;52862;52.504;13.480;2023-12-20T03:01:41;10.97;;;5.73;;
51866;SDS011;52862;52.504;13.480;2023-12-20T03:04:08;11.43;;;5.10;;
51866;SDS011;52862;52.504;13.480;2023-12-20T03:06:35;14.97;;;5.60;;
51866;SDS011;52862;52.504;13.480;2023-12-20T03:09:02;9.60;;;4.80;;
51866;SDS011;52862;52.504;13.480;2023-12-20T03:11:30;16.63;;;5.47;;
51866;SDS011;52862;52.504;13.480;2023-12-20T03:13:57;11.40;;;5.13;;
51866;SDS011;52862;52.504;13.480;2023-12-20T03:16:24;12.57;;;5.47;;
51866;SDS011;52862;52.504;13.480;2023-12-20T03:18:51;17.00;;;4.93;;
51866;SDS011;52862;52.504;13.480;2023-12-20T03:21:19;6.43;;;3.80;;
51866;SDS011;52862;52.504;13.480;2023-12-20T03:23:46;15.27;;;4.73;;
51866;SDS011;52862;52.504;13.480;2023-12-20T03:26:13;6.23;;;3.23;;
51866;SDS011;52862;52.504;13.480;2023-12-20T03:28:40;12.90;;;4.87;;
51866;SDS011;52862;52.504;13.480;2023-12-20T03:31:08;18.97;;;4.40;;
51866;SDS011;52862;52.504;13.480;2023-12-20T03:33:36;11.70;;;3.27;;
51866;SDS011;52862;52.504;13.480;2023-12-20T03:36:02;18.77;;;4.40;;
51866;SDS011;52862;52.504;13.480;2023-12-20T03:38:29;30.93;;;4.53;;
51866;SDS011;52862;52.504;13.480;2023-12-20T03:40:56;13.60;;;3.20;;
51866;SDS011;52862;52.504;13.480;2023-12-20T03:43:23;19.93;;;3.77;;
51866;SDS011;52862;52.504;13.480;2023-12-20T03:45:50;12.33;;;3.30;;
51866;SDS011;52862;52.504;13.480;2023-12-20T03:48:18;9.27;;;2.93;;
51866;SDS011;52862;52.504;13.480;2023-12-20T03:50:45;13.60;;;3.43;;
51866;SDS011;52862;52.504;13.480;2023-12-20T03:53:11;13.97;;;3.43;;
51866;SDS011;52862;52.504;13.480;2023-12-20T03:55:38;12.60;;;2.83;;
51866;SDS011;52862;52.504;13.480;2023-12-20T03:58:05;18.40;;;3.20;;
51866;SDS011;52862;52.504;13.480;2023-12-20T04:00:32;10.93;;;2.80;;
51866;SDS011;52862;52.504;13.480;2023-12-20T04:02:59;18.03;;;2.93;;
51866;SDS011;52862;52.504;13.480;2023-12-20T04:05:27;13.20;;;3.00;;
51866;SDS011;52862;52.504;13.480;2023-12-20T04:07:54;21.53;;;3.17;;
51866;SDS011;52862;52.504;13.480;2023-12-20T04:10:21;16.90;;;3.03;;
51866;SDS011;52862;52.504;13.480;2023-12-20T04:12:48;13.17;;;2.00;;
51866;SDS011;52862;52.504;13.480;2023-12-20T04:15:15;17.77;;;2.77;;
51866;SDS011;52862;52.504;13.480;2023-12-20T04:17:41;17.57;;;3.03;;
51866;SDS011;52862;52.504;13.480;2023-12-20T04:20:09;7.80;;;1.73;;
51866;SDS011;52862;52.504;13.480;2023-12-20T04:22:37;24.83;;;2.77;;
51866;SDS011;52862;52.504;13.480;2023-12-20T04:25:04;17.87;;;3.70;;
51866;SDS011;52862;52.504;13.480;2023-12-20T04:27:31;14.37;;;2.57;;
51866;SDS011;52862;52.504;13.480;2023-12-20T04:29:58;18.57;;;2.10;;
51866;SDS011;52862;52.504;13.480;2023-12-20T04:32:24;18.17;;;2.67;;
51866;SDS011;52862;52.504;13.480;2023-12-20T04:34:51;15.27;;;2.43;;
51866;SDS011;52862;52.504;13.480;2023-12-20T04:37:18;14.30;;;2.40;;
51866;SDS011;52862;52.504;13.480;2023-12-20T04:39:46;21.73;;;2.87;;
51866;SDS011;52862;52.504;13.480;2023-12-20T04:42:12;22.57;;;2.90;;
51866;SDS011;52862;52.504;13.480;2023-12-20T04:44:39;17.13;;;3.23;;
51866;SDS011;52862;52.504;13.480;2023-12-20T04:47:06;24.73;;;3.17;;
51866;SDS011;52862;52.504;13.480;2023-12-20T04:49:33;26.00;;;3.53;;
51866;SDS011;52862;52.504;13.480;2023-12-20T04:52:00;18.93;;;3.07;;
51866;SDS011;52862;52.504;13.480;2023-12-20T04:54:27;18.03;;;3.20;;
51866;SDS011;52862;52.504;13.480;2023-12-20T04:56:55;27.07;;;2.90;;
51866;SDS011;52862;52.504;13.480;2023-12-20T04:59:21;18.50;;;2.77;;
51866;SDS011;52862;52.504;13.480;2023-12-20T05:01:48;20.07;;;2.90;;
51866;SDS011;52862;52.504;13.480;2023-12-20T05:04:15;28.27;;;3.20;;
51866;SDS011;52862;52.504;13.480;2023-12-20T05:06:42;30.37;;;3.83;;
51866;SDS011;52862;52.504;13.480;2023-12-20T05:09:09;15.00;;;2.70;;
51866;SDS011;52862;52.504;13.480;2023-12-20T05:11:36;14.03;;;1.97;;
51866;SDS011;52862;52.504;13.480;2023-12-20T05:14:04;12.17;;;2.77;;
51866;SDS011;52862;52.504;13.480;2023-12-20T05:16:30;21.47;;;2.43;;
51866;SDS011;52862;52.504;13.480;2023-12-20T05:18:57;19.20;;;2.43;;
51866;SDS011;52862;52.504;13.480;2023-12-20T05:21:26;28.27;;;3.70;;
51866;SDS011;52862;52.504;13.480;2023-12-20T05:23:53;15.20;;;2.83;;
51866;SDS011;52862;52.504;13.480;2023-12-20T05:26:20;12.30;;;3.07;;
51866;SDS011;52862;52.504;13.480;2023-12-20T05:28:47;20.60;;;2.80;;
51866;SDS011;52862;52.504;13.480;2023-12-20T05:31:14;24.93;;;3.37;;
51866;SDS011;52862;52.504;13.480;2023-12-20T05:33:41;19.77;;;3.40;;
51866;SDS011;52862;52.504;13.480;2023-12-20T05:36:09;18.00;;;3.23;;
51866;SDS011;52862;52.504;13.480;2023-12-20T05:38:37;30.40;;;3.30;;
51866;SDS011;52862;52.504;13.480;2023-12-20T05:41:03;11.17;;;2.70;;
51866;SDS011;52862;52.504;13.480;2023-12-20T05:43:30;17.57;;;2.83;;
51866;SDS011;52862;52.504;13.480;2023-12-20T05:45:58;21.50;;;3.77;;
51866;SDS011;52862;52.504;13.480;2023-12-20T05:48:26;33.73;;;2.63;;
51866;SDS011;52862;52.504;13.480;2023-12-20T05:50:53;18.60;;;3.00;;
51866;SDS011;52862;52.504;13.480;2023-12-20T05:53:20;18.73;;;3.43;;
51866;SDS011;52862;52.504;13.480;2023-12-20T05:55:46;15.27;;;2.80;;
51866;SDS011;52862;52.504;13.480;2023-12-20T05:58:14;25.37;;;2.43;;
51866;SDS011;52862;52.504;13.480;2023-12-20T06:00:41;15.67;;;1.87;;
51866;SDS011;52862;52.504;13.480;2023-12-20T06:03:08;14.27;;;2.40;;
51866;SDS011;52862;52.504;13.480;2023-12-20T06:05:35;7.37;;;1.83;;
51866;SDS011;52862;52.504;13.480;2023-12-20T06:08:02;8.30;;;2.03;;
51866;SDS011;52862;52.504;13.480;2023-12-20T06:10:29;13.80;;;2.50;;
51866;SDS011;52862;52.504;13.480;2023-12-20T06:12:56;14.03;;;2.60;;
51866;SDS011;52862;52.504;13.480;2023-12-20T06:15:24;24.87;;;3.10;;
51866;SDS011;52862;52.504;13.480;2023-12-20T06:17:51;12.50;;;2.77;;
51866;SDS011;52862;52.504;13.480;2023-12-20T06:20:18;27.33;;;3.20;;
51866;SDS011;52862;52.504;13.480;2023-12-20T06:22:46;23.60;;;3.47;;
51866;SDS011;52862;52.504;13.480;2023-12-20T06:25:13;30.10;;;3.13;;
51866;SDS011;52862;52.504;13.480;2023-12-20T06:27:40;9.10;;;2.40;;
51866;SDS011;52862;52.504;13.480;2023-12-20T06:30:07;15.53;;;3.10;;
51866;SDS011;52862;52.504;13.480;2023-12-20T06:32:35;18.77;;;2.00;;
51866;SDS011;52862;52.504;13.480;2023-12-20T06:35:03;20.03;;;3.43;;
51866;SDS011;52862;52.504;13.480;2023-12-20T06:37:31;15.37;;;2.70;;
51866;SDS011;52862;52.504;13.480;2023-12-20T06:39:59;17.43;;;2.47;;
51866;SDS011;52862;52.504;13.480;2023-12-20T06:42:26;24.47;;;3.50;;
51866;SDS011;52862;52.504;13.480;2023-12-20T06:44:55;12.47;;;2.70;;
51866;SDS011;52862;52.504;13.480;2023-12-20T06:47:22;14.50;;;2.37;;
51866;SDS011;52862;52.504;13.480;2023-12-20T06:49:49;31.27;;;3.60;;
51866;SDS011;52862;52.504;13.480;2023-12-20T06:52:16;21.70;;;3.27;;
51866;SDS011;52862;52.504;13.480;2023-12-20T06:54:43;9.00;;;2.00;;
51866;SDS011;52862;52.504;13.480;2023-12-20T06:57:11;10.07;;;2.67;;
51866;SDS011;52862;52.504;13.480;2023-12-20T06:59:38;18.50;;;3.03;;
51866;SDS011;52862;52.504;13.480;2023-12-20T07:02:05;27.73;;;3.20;;
51866;SDS011;52862;52.504;13.480;2023-12-20T07:04:40;19.37;;;3.37;;
51866;SDS011;52862;52.504;13.480;2023-12-20T07:07:07;19.60;;;3.60;;
51866;SDS011;52862;52.504;13.480;2023-12-20T07:09:34;10.77;;;2.30;;
51866;SDS011;52862;52.504;13.480;2023-12-20T07:12:01;13.53;;;2.80;;
51866;SDS011;52862;52.504;13.480;2023-12-20T07:14:29;14.97;;;2.40;;
51866;SDS011;52862;52.504;13.480;2023-12-20T07:16:56;14.80;;;3.70;;
51866;SDS011;52862;52.504;13.480;2023-12-20T07:19:23;21.37;;;3.30;;
51866;SDS011;52862;52.504;13.480;2023-12-20T07:21:50;14.37;;;2.37;;
51866;SDS011;52862;52.504;13.480;2023-12-20T07:24:17;22.93;;;3.50;;
51866;SDS011;52862;52.504;13.480;2023-12-20T07:26:44;15.63;;;3.03;;
51866;SDS011;52862;52.504;13.480;2023-12-20T07:29:11;21.30;;;3.40;;
51866;SDS011;52862;52.504;13.480;2023-12-20T07:31:40;13.27;;;2.73;;
51866;SDS011;52862;52.504;13.480;2023-12-20T07:34:07;15.87;;;5.00;;
51866;SDS011;52862;52.504;13.480;2023-12-20T07:36:37;15.63;;;3.37;;
51866;SDS011;52862;52.504;13.480;2023-12-20T07:39:04;16.70;;;2.90;;
51866;SDS011;52862;52.504;13.480;2023-12-20T07:41:39;29.90;;;3.57;;
51866;SDS011;52862;52.504;13.480;2023-12-20T07:44:06;9.60;;;3.13;;
51866;SDS011;52862;52.504;13.480;2023-12-20T07:46:33;12.87;;;1.63;;
51866;SDS011;52862;52.504;13.480;2023-12-20T07:49:00;15.13;;;2.63;;
51866;SDS011;52862;52.504;13.480;2023-12-20T07:51:27;12.80;;;2.57;;
51866;SDS011;52862;52.504;13.480;2023-12-20T07:53:54;12.53;;;2.87;;
51866;SDS011;52862;52.504;13.480;2023-12-20T07:56:21;24.70;;;3.33;;
51866;SDS011;52862;52.504;13.480;2023-12-20T07:58:48;42.03;;;3.50;;
51866;SDS011;52862;52.504;13.480;2023-12-20T08:01:19;14.83;;;2.60;;
51866;SDS011;52862;52.504;13.480;2023-12-20T08:03:48;21.73;;;2.70;;
51866;SDS011;52862;52.504;13.480;2023-12-20T08:06:15;37.33;;;3.40;;
51866;SDS011;52862;52.504;13.480;2023-12-20T08:08:43;12.00;;;1.97;;
51866;SDS011;52862;52.504;13.480;2023-12-20T08:11:10;20.13;;;3.00;;
51866;SDS011;52862;52.504;13.480;2023-12-20T08:13:37;15.73;;;2.37;;
51866;SDS011;52862;52.504;13.480;2023-12-20T08:16:05;11.07;;;1.87;;
51866;SDS011;52862;52.504;13.480;2023-12-20T08:18:32;14.93;;;2.13;;
51866;SDS011;52862;52.504;13.480;2023-12-20T08:20:59;15.63;;;2.20;;
51866;SDS011;52862;52.504;13.480;2023-12-20T08:23:27;18.67;;;2.70;;
51866;SDS011;52862;52.504;13.480;2023-12-20T08:25:57;11.33;;;2.40;;
51866;SDS011;52862;52.504;13.480;2023-12-20T08:28:24;17.80;;;2.80;;
51866;SDS011;52862;52.504;13.480;2023-12-20T08:30:51;14.90;;;2.20;;
51866;SDS011;52862;52.504;13.480;2023-12-20T08:33:20;21.77;;;3.07;;
51866;SDS011;52862;52.504;13.480;2023-12-20T08:35:46;16.93;;;2.03;;
51866;SDS011;52862;52.504;13.480;2023-12-20T08:38:14;20.30;;;2.53;;
51866;SDS011;52862;52.504;13.480;2023-12-20T08:40:40;17.47;;;3.63;;
51866;SDS011;52862;52.504;13.480;2023-12-20T08:43:07;11.57;;;2.00;;
51866;SDS011;52862;52.504;13.480;2023-12-20T08:45:34;15.40;;;2.77;;
51866;SDS011;52862;52.504;13.480;2023-12-20T08:48:04;20.53;;;2.80;;
51866;SDS011;52862;52.504;13.480;2023-12-20T08:50:35;11.47;;;2.40;;
51866;SDS011;52862;52.504;13.480;2023-12-20T08:53:03;16.07;;;3.70;;
51866;SDS011;52862;52.504;13.480;2023-12-20T08:55:29;17.90;;;2.67;;
51866;SDS011;52862;52.504;13.480;2023-12-20T08:57:57;20.40;;;3.30;;
51866;SDS011;52862;52.504;13.480;2023-12-20T09:00:24;13.07;;;2.67;;
51866;SDS011;52862;52.504;13.480;2023-12-20T09:02:53;12.03;;;2.17;;
51866;SDS011;52862;52.504;13.480;2023-12-20T09:05:20;35.07;;;3.50;;
51866;SDS011;52862;52.504;13.480;2023-12-20T09:07:48;25.87;;;3.77;;
51866;SDS011;52862;52.504;13.480;2023-12-20T09:10:15;10.73;;;2.17;;
51866;SDS011;52862;52.504;13.480;2023-12-20T09:12:47;19.03;;;3.07;;
51866;SDS011;52862;52.504;13.480;2023-12-20T09:15:14;13.30;;;1.97;;
51866;SDS011;52862;52.504;13.480;2023-12-20T09:17:41;10.27;;;2.93;;
51866;SDS011;52862;52.504;13.480;2023-12-20T09:20:09;16.47;;;2.63;;
51866;SDS011;52862;52.504;13.480;2023-12-20T09:22:37;11.77;;;3.10;;
51866;SDS011;52862;52.504;13.480;2023-12-20T09:25:06;5.70;;;1.70;;
51866;SDS011;52862;52.504;13.480;2023-12-20T09:27:33;17.67;;;3.13;;
51866;SDS011;52862;52.504;13.480;2023-12-20T09:30:00;15.40;;;2.70;;
51866;SDS011;52862;52.504;13.480;2023-12-20T09:32:27;11.83;;;1.73;;
51866;SDS011;52862;52.504;13.480;2023-12-20T09:34:55;16.37;;;3.00;;
51866;SDS011;52862;52.504;13.480;2023-12-20T09:37:22;27.30;;;3.87;;
51866;SDS011;52862;52.504;13.480;2023-12-20T09:39:49;11.50;;;3.13;;
51866;SDS011;52862;52.504;13.480;2023-12-20T09:42:17;23.47;;;3.47;;
51866;SDS011;52862;52.504;13.480;2023-12-20T09:44:50;16.57;;;3.50;;
51866;SDS011;52862;52.504;13.480;2023-12-20T09:47:18;14.50;;;2.80;;
51866;SDS011;52862;52.504;13.480;2023-12-20T09:49:50;16.37;;;3.70;;
51866;SDS011;52862;52.504;13.480;2023-12-20T09:52:18;7.83;;;1.43;;
51866;SDS011;52862;52.504;13.480;2023-12-20T09:54:45;21.90;;;3.33;;
51866;SDS011;52862;52.504;13.480;2023-12-20T09:57:15;17.00;;;2.50;;
51866;SDS011;52862;52.504;13.480;2023-12-20T09:59:43;27.03;;;3.63;;
51866;SDS011;52862;52.504;13.480;2023-12-20T10:02:12;16.20;;;2.37;;
51866;SDS011;52862;52.504;13.480;2023-12-20T10:04:40;29.30;;;3.53;;
51866;SDS011;52862;52.504;13.480;2023-12-20T10:07:13;10.87;;;2.40;;
51866;SDS011;52862;52.504;13.480;2023-12-20T10:09:47;21.47;;;2.90;;
51866;SDS011;52862;52.504;13.480;2023-12-20T10:12:14;19.40;;;3.03;;
51866;SDS011;52862;52.504;13.480;2023-12-20T10:14:41;17.37;;;2.40;;
51866;SDS011;52862;52.504;13.480;2023-12-20T10:17:08;30.03;;;3.57;;
51866;SDS011;52862;52.504;13.480;2023-12-20T10:19:35;20.63;;;2.43;;
51866;SDS011;52862;52.504;13.480;2023-12-20T10:22:03;20.93;;;3.33;;
51866;SDS011;52862;52.504;13.480;2023-12-20T10:24:31;20.17;;;3.07;;
51866;SDS011;52862;52.504;13.480;2023-12-20T10:27:01;20.53;;;3.60;;
51866;SDS011;52862;52.504;13.480;2023-12-20T10:29:31;4.97;;;2.03;;
51866;SDS011;52862;52.504;13.480;2023-12-20T10:34:50;14.93;;;2.17;;
51866;SDS011;52862;52.504;13.480;2023-12-20T10:37:18;23.57;;;4.70;;
51866;SDS011;52862;52.504;13.480;2023-12-20T10:39:46;26.20;;;3.40;;
51866;SDS011;52862;52.504;13.480;2023-12-20T10:42:17;14.53;;;2.70;;
51866;SDS011;52862;52.504;13.480;2023-12-20T10:44:46;15.87;;;4.10;;
51866;SDS011;52862;52.504;13.480;2023-12-20T10:47:13;25.20;;;4.10;;
51866;SDS011;52862;52.504;13.480;2023-12-20T10:49:41;32.77;;;3.57;;
51866;SDS011;52862;52.504;13.480;2023-12-20T10:52:08;16.13;;;2.80;;
51866;SDS011;52862;52.504;13.480;2023-12-20T10:54:37;16.07;;;2.97;;
51866;SDS011;52862;52.504;13.480;2023-12-20T10:57:04;21.87;;;3.17;;
51866;SDS011;52862;52.504;13.480;2023-12-20T10:59:32;24.80;;;3.97;;
51866;SDS011;52862;52.504;13.480;2023-12-20T11:02:01;7.37;;;2.23;;
51866;SDS011;52862;52.504;13.480;2023-12-20T11:04:33;17.50;;;3.07;;
51866;SDS011;52862;52.504;13.480;2023-12-20T11:07:07;19.57;;;3.30;;
51866;SDS011;52862;52.504;13.480;2023-12-20T11:09:43;17.67;;;3.43;;
51866;SDS011;52862;52.504;13.480;2023-12-20T11:12:16;14.20;;;3.30;;
51866;SDS011;52862;52.504;13.480;2023-12-20T11:14:49;24.87;;;3.00;;
51866;SDS011;52862;52.504;13.480;2023-12-20T11:17:17;10.40;;;2.67;;
51866;SDS011;52862;52.504;13.480;2023-12-20T11:22:34;17.17;;;2.80;;
51866;SDS011;52862;52.504;13.480;2023-12-20T11:25:06;15.07;;;2.83;;
51866;SDS011;52862;52.504;13.480;2023-12-20T11:27:40;16.17;;;4.57;;
51866;SDS011;52862;52.504;13.480;2023-12-20T11:30:08;30.50;;;3.80;;
51866;SDS011;52862;52.504;13.480;2023-12-20T11:32:36;21.23;;;2.90;;
51866;SDS011;52862;52.504;13.480;2023-12-20T11:35:16;9.37;;;2.77;;
51866;SDS011;52862;52.504;13.480;2023-12-20T11:37:45;20.50;;;3.47;;
51866;SDS011;52862;52.504;13.480;2023-12-20T11:40:15;17.43;;;3.20;;
51866;SDS011;52862;52.504;13.480;2023-12-20T11:42:44;19.03;;;3.10;;
51866;SDS011;52862;52.504;13.480;2023-12-20T11:45:15;19.33;;;3.93;;
51866;SDS011;52862;52.504;13.480;2023-12-20T11:47:46;18.83;;;3.40;;
51866;SDS011;52862;52.504;13.480;2023-12-20T11:50:16;19.00;;;3.10;;
51866;SDS011;52862;52.504;13.480;2023-12-20T11:52:43;10.73;;;2.87;;
51866;SDS011;52862;52.504;13.480;2023-12-20T11:55:10;20.67;;;3.33;;
51866;SDS011;52862;52.504;13.480;2023-12-20T11:57:38;29.50;;;3.93;;
51866;SDS011;52862;52.504;13.480;2023-12-20T12:00:05;14.10;;;2.60;;
51866;SDS011;52862;52.504;13.480;2023-12-20T12:02:32;18.73;;;2.70;;
51866;SDS011;52862;52.504;13.480;2023-12-20T12:04:59;8.60;;;2.23;;
51866;SDS011;52862;52.504;13.480;2023-12-20T12:07:27;15.10;;;2.60;;
51866;SDS011;52862;52.504;13.480;2023-12-20T12:09:54;20.73;;;3.77;;
51866;SDS011;52862;52.504;13.480;2023-12-20T12:12:21;17.77;;;3.37;;
51866;SDS011;52862;52.504;13.480;2023-12-20T12:14:50;13.43;;;3.40;;
51866;SDS011;52862;52.504;13.480;2023-12-20T12:17:18;16.97;;;4.37;;
51866;SDS011;52862;52.504;13.480;2023-12-20T12:19:45;26.17;;;2.97;;
51866;SDS011;52862;52.504;13.480;2023-12-20T12:22:13;20.43;;;3.10;;
51866;SDS011;52862;52.504;13.480;2023-12-20T12:24:43;21.00;;;2.97;;
51866;SDS011;52862;52.504;13.480;2023-12-20T12:27:10;28.47;;;2.57;;
51866;SDS011;52862;52.504;13.480;2023-12-20T12:29:39;19.97;;;2.43;;
51866;SDS011;52862;52.504;13.480;2023-12-20T12:32:06;8.67;;;2.80;;
51866;SDS011;52862;52.504;13.480;2023-12-20T12:34:34;21.27;;;2.53;;
51866;SDS011;52862;52.504;13.480;2023-12-20T12:37:01;8.53;;;1.67;;
51866;SDS011;52862;52.504;13.480;2023-12-20T12:39:29;14.10;;;3.30;;
51866;SDS011;52862;52.504;13.480;2023-12-20T12:41:58;17.27;;;2.63;;
51866;SDS011;52862;52.504;13.480;2023-12-20T12:44:25;16.47;;;2.77;;
51866;SDS011;52862;52.504;13.480;2023-12-20T12:46:53;13.90;;;3.30;;
51866;SDS011;52862;52.504;13.480;2023-12-20T12:49:20;18.73;;;3.23;;
51866;SDS011;52862;52.504;13.480;2023-12-20T12:51:47;12.77;;;2.93;;
51866;SDS011;52862;52.504;13.480;2023-12-20T12:54:15;12.33;;;2.20;;
51866;SDS011;52862;52.504;13.480;2023-12-20T12:56:43;15.73;;;2.63;;
51866;SDS011;52862;52.504;13.480;2023-12-20T12:59:12;10.33;;;2.20;;
51866;SDS011;52862;52.504;13.480;2023-12-20T13:01:39;17.20;;;2.40;;
51866;SDS011;52862;52.504;13.480;2023-12-20T13:04:07;18.40;;;3.23;;
51866;SDS011;52862;52.504;13.480;2023-12-20T13:06:36;23.67;;;3.13;;
51866;SDS011;52862;52.504;13.480;2023-12-20T13:09:03;12.37;;;3.13;;
51866;SDS011;52862;52.504;13.480;2023-12-20T13:11:30;17.00;;;4.23;;
51866;SDS011;52862;52.504;13.480;2023-12-20T13:13:58;18.00;;;3.93;;
51866;SDS011;52862;52.504;13.480;2023-12-20T13:16:24;9.37;;;2.63;;
51866;SDS011;52862;52.504;13.480;2023-12-20T13:18:52;9.73;;;2.87;;
51866;SDS011;52862;52.504;13.480;2023-12-20T13:21:19;17.23;;;2.83;;
51866;SDS011;52862;52.504;13.480;2023-12-20T13:23:46;13.47;;;3.90;;
51866;SDS011;52862;52.504;13.480;2023-12-20T13:26:14;8.33;;;2.20;;
51866;SDS011;52862;52.504;13.480;2023-12-20T13:28:41;12.73;;;3.33;;
51866;SDS011;52862;52.504;13.480;2023-12-20T13:31:08;11.77;;;2.77;;
51866;SDS011;52862;52.504;13.480;2023-12-20T13:33:35;9.23;;;1.33;;
51866;SDS011;52862;52.504;13.480;2023-12-20T13:36:03;18.27;;;2.70;;
51866;SDS011;52862;52.504;13.480;2023-12-20T13:38:34;3.03;;;1.33;;
51866;SDS011;52862;52.504;13.480;2023-12-20T13:41:01;3.70;;;1.53;;
51866;SDS011;52862;52.504;13.480;2023-12-20T13:43:27;4.10;;;1.37;;
51866;SDS011;52862;52.504;13.480;2023-12-20T13:45:55;3.57;;;1.30;;
51866;SDS011;52862;52.504;13.480;2023-12-20T13:48:23;3.80;;;1.60;;
51866;SDS011;52862;52.504;13.480;2023-12-20T13:50:49;9.73;;;1.80;;
51866;SDS011;52862;52.504;13.480;2023-12-20T13:53:16;9.07;;;2.10;;
51866;SDS011;52862;52.504;13.480;2023-12-20T13:55:45;4.70;;;1.60;;
51866;SDS011;52862;52.504;13.480;2023-12-20T13:58:12;5.60;;;1.60;;
51866;SDS011;52862;52.504;13.480;2023-12-20T14:00:39;5.07;;;1.67;;
51866;SDS011;52862;52.504;13.480;2023-12-20T14:03:06;7.93;;;2.13;;
51866;SDS011;52862;52.504;13.480;2023-12-20T14:05:34;5.07;;;1.90;;
51866;SDS011;52862;52.504;13.480;2023-12-20T14:08:01;5.43;;;2.30;;
51866;SDS011;52862;52.504;13.480;2023-12-20T14:10:29;3.50;;;1.53;;
51866;SDS011;52862;52.504;13.480;2023-12-20T14:12:57;1.20;;;0.73;;
51866;SDS011;52862;52.504;13.480;2023-12-20T14:15:24;9.00;;;2.20;;
51866;SDS011;52862;52.504;13.480;2023-12-20T14:17:51;4.90;;;1.83;;
51866;SDS011;52862;52.504;13.480;2023-12-20T14:20:18;3.93;;;1.70;;
51866;SDS011;52862;52.504;13.480;2023-12-20T14:22:45;4.00;;;1.33;;
51866;SDS011;52862;52.504;13.480;2023-12-20T14:25:12;5.23;;;1.50;;
51866;SDS011;52862;52.504;13.480;2023-12-20T14:27:40;1.47;;;0.93;;
51866;SDS011;52862;52.504;13.480;2023-12-20T14:30:10;4.40;;;1.40;;
51866;SDS011;52862;52.504;13.480;2023-12-20T14:32:39;4.53;;;1.23;;